Time;durP1;ratioP1;P1;durP2;ratioP2;P2;SDS_P1;SDS_P2;PMS_P1;PMS_P2;Temp;Humidity;BMP_temperature;BMP_pressure;BME280_temperature;BME280_humidity;BME280_pressure;Samples;Min_cycle;Max_cycle;Signal;HPM_P1;HPM_P2
2024/03/06 00:01:57;;;;;;;5.20;2.80;;;;;;;18.64;42.78;101655.47;5009631;28;20067;-71
2024/03/06 00:04:22;;;;;;;5.22;3.20;;;;;;;18.62;42.28;101659.16;5004785;28;20037;-69
2024/03/06 00:06:48;;;;;;;6.90;3.10;;;;;;;18.68;42.44;101671.94;5020117;28;20057;-70
2024/03/06 00:09:13;;;;;;;5.60;3.40;;;;;;;18.65;42.61;101669.50;5013166;28;20040;-70
2024/03/06 00:11:38;;;;;;;4.57;2.95;;;;;;;18.44;42.60;101643.66;5017982;28;20033;-70
2024/03/06 00:14:05;;;;;;;5.88;3.10;;;;;;;18.52;42.32;101655.47;5007268;28;20026;-72
2024/03/06 00:16:31;;;;;;;5.25;3.22;;;;;;;18.53;42.04;101655.34;5000850;28;20125;-70
2024/03/06 00:18:56;;;;;;;4.32;2.85;;;;;;;18.47;42.21;101656.63;5007375;28;20027;-71
2024/03/06 00:21:22;;;;;;;5.10;3.03;;;;;;;18.59;42.12;101669.94;5009306;28;20460;-72
2024/03/06 00:23:47;;;;;;;4.97;3.17;;;;;;;18.56;42.15;101678.06;5011080;28;20037;-70
2024/03/06 00:26:12;;;;;;;5.05;3.15;;;;;;;18.57;42.11;101679.75;5009477;28;20065;-71
2024/03/06 00:28:38;;;;;;;6.00;3.30;;;;;;;18.44;42.00;101663.94;5010673;28;20571;-70
2024/03/06 00:31:05;;;;;;;5.57;3.08;;;;;;;18.48;41.98;101673.31;5015488;28;20051;-69
2024/03/06 00:33:30;;;;;;;4.72;2.95;;;;;;;18.41;41.96;101664.97;5015851;28;20060;-70
2024/03/06 00:35:56;;;;;;;5.78;3.50;;;;;;;18.53;41.71;101683.56;5012044;28;20103;-71
2024/03/06 00:38:21;;;;;;;5.13;3.30;;;;;;;18.50;42.00;101684.63;5009037;28;20038;-69
2024/03/06 00:40:46;;;;;;;5.45;2.90;;;;;;;18.42;41.77;101668.44;5006280;28;20030;-71
2024/03/06 00:43:12;;;;;;;5.25;3.05;;;;;;;18.43;41.68;101680.72;5005287;28;20057;-70
2024/03/06 00:45:37;;;;;;;4.80;2.85;;;;;;;18.47;41.79;101688.31;5015876;28;20226;-69
2024/03/06 00:48:03;;;;;;;5.03;3.05;;;;;;;18.32;41.60;101673.53;5014091;28;20158;-69
2024/03/06 00:50:28;;;;;;;5.90;3.30;;;;;;;18.43;41.80;101692.09;5004998;28;20741;-70
2024/03/06 00:52:54;;;;;;;4.85;2.75;;;;;;;18.37;41.68;101689.88;5005445;28;20029;-70
2024/03/06 00:55:19;;;;;;;4.57;2.92;;;;;;;18.33;41.63;101680.50;5017238;28;20029;-69
2024/03/06 00:57:44;;;;;;;4.75;3.10;;;;;;;18.34;41.50;101690.13;5013550;28;20029;-71
2024/03/06 01:00:10;;;;;;;5.47;3.55;;;;;;;18.42;41.69;101705.41;5015583;28;20030;-70
2024/03/06 01:02:39;;;;;;;4.72;3.08;;;;;;;18.43;41.63;101702.66;5005480;28;20026;-71
2024/03/06 01:05:06;;;;;;;4.88;2.90;;;;;;;18.28;41.52;101682.63;5006496;28;20402;-70
2024/03/06 01:07:32;;;;;;;5.70;3.10;;;;;;;18.41;41.43;101709.84;5005349;28;20455;-70
2024/03/06 01:09:58;;;;;;;5.10;2.90;;;;;;;18.19;41.73;101670.91;5012646;28;20513;-70
2024/03/06 01:12:24;;;;;;;4.93;3.10;;;;;;;18.28;41.44;101693.19;5019654;28;20120;-70
2024/03/06 01:14:49;;;;;;;5.10;2.92;;;;;;;18.21;41.52;101686.63;5010507;28;20441;-70
2024/03/06 01:17:15;;;;;;;5.05;3.20;;;;;;;18.36;41.42;101714.59;5004020;28;20502;-69
2024/03/06 01:19:40;;;;;;;5.35;3.05;;;;;;;18.16;41.19;101694.84;5000845;28;20034;-70
2024/03/06 01:22:05;;;;;;;5.18;3.15;;;;;;;18.27;41.13;101710.78;5000313;28;20495;-70
2024/03/06 01:24:31;;;;;;;5.22;3.05;;;;;;;18.33;41.28;101714.81;5017710;28;20100;-70
2024/03/06 01:26:56;;;;;;;4.80;2.67;;;;;;;18.31;41.26;101709.63;5018852;28;20032;-69
2024/03/06 01:29:21;;;;;;;5.00;3.20;;;;;;;18.27;41.14;101705.50;5013178;28;20402;-70
2024/03/06 01:31:47;;;;;;;5.05;3.03;;;;;;;18.28;41.27;101704.56;5010789;28;20064;-69
2024/03/06 01:34:12;;;;;;;5.72;3.03;;;;;;;18.29;41.36;101714.19;5019656;28;20034;-69
2024/03/06 01:36:37;;;;;;;5.40;3.05;;;;;;;18.27;41.14;101723.97;5020132;28;20045;-71
2024/03/06 01:39:03;;;;;;;7.15;3.20;;;;;;;18.21;41.19;101710.38;5018005;28;20066;-69
2024/03/06 01:41:28;;;;;;;4.90;3.00;;;;;;;18.17;41.12;101719.47;4999475;28;20069;-71
2024/03/06 01:43:54;;;;;;;5.25;2.95;;;;;;;18.28;41.23;101724.84;5008534;28;20550;-72
2024/03/06 01:46:19;;;;;;;4.53;2.60;;;;;;;18.17;41.14;101717.66;5015852;28;20038;-71
2024/03/06 01:48:45;;;;;;;5.35;3.40;;;;;;;18.28;41.14;101733.59;5018165;28;20049;-73
2024/03/06 01:51:11;;;;;;;4.85;3.08;;;;;;;18.21;41.05;101721.75;5019276;28;20045;-72
2024/03/06 01:53:37;;;;;;;6.15;3.10;;;;;;;18.23;41.08;101732.19;5015717;28;20084;-70
2024/03/06 01:56:04;;;;;;;4.72;2.97;;;;;;;18.16;41.36;101723.88;5018629;28;20036;-70
2024/03/06 01:58:30;;;;;;;4.70;2.88;;;;;;;18.16;41.19;101721.22;5006547;28;20037;-72
2024/03/06 02:00:57;;;;;;;5.20;2.97;;;;;;;18.14;41.31;101728.41;4999378;28;20161;-71
2024/03/06 02:03:23;;;;;;;5.38;3.17;;;;;;;18.19;41.00;101736.84;5005201;28;20042;-72
2024/03/06 02:05:50;;;;;;;5.00;3.20;;;;;;;18.00;40.84;101705.59;5007192;28;20042;-68
2024/03/06 02:08:16;;;;;;;8.73;3.45;;;;;;;18.22;40.85;101744.56;5013675;28;20059;-68
2024/03/06 02:10:41;;;;;;;6.72;3.13;;;;;;;18.20;40.94;101750.88;5003421;28;20851;-70
2024/03/06 02:13:07;;;;;;;4.90;3.22;;;;;;;18.10;40.92;101742.75;5000814;28;20460;-70
2024/03/06 02:15:32;;;;;;;4.57;3.05;;;;;;;18.17;40.86;101759.03;5013466;28;20043;-69
2024/03/06 02:17:58;;;;;;;5.90;3.45;;;;;;;18.13;40.87;101750.44;5008179;28;20037;-70
2024/03/06 02:20:24;;;;;;;5.40;3.28;;;;;;;18.02;40.96;101740.59;5003810;28;20033;-70
2024/03/06 02:22:50;;;;;;;6.07;3.33;;;;;;;18.06;40.74;101743.91;5008286;28;20080;-71
2024/03/06 02:25:16;;;;;;;5.15;3.17;;;;;;;18.13;40.77;101755.72;5001031;28;20475;-70
2024/03/06 02:27:43;;;;;;;5.28;2.88;;;;;;;18.12;40.95;101762.81;5001813;28;20456;-71
2024/03/06 02:30:08;;;;;;;4.45;2.50;;;;;;;18.11;40.71;101766.38;5005131;28;20048;-70
2024/03/06 02:32:34;;;;;;;4.85;2.65;;;;;;;18.09;40.90;101768.28;5015629;28;20029;-71
2024/03/06 02:35:03;;;;;;;4.43;3.00;;;;;;;18.12;40.91;101773.34;5009998;28;20376;-70
2024/03/06 02:37:28;;;;;;;5.28;3.28;;;;;;;18.04;40.87;101751.94;5011344;28;20403;-71
2024/03/06 02:39:53;;;;;;;5.47;3.10;;;;;;;18.03;40.99;101755.50;5009040;28;20550;-71
2024/03/06 02:42:19;;;;;;;4.75;2.97;;;;;;;18.10;40.79;101770.00;5009739;28;20033;-70
2024/03/06 02:44:44;;;;;;;5.30;3.03;;;;;;;18.12;40.83;101773.34;5005929;28;20547;-71
2024/03/06 02:47:09;;;;;;;4.70;3.13;;;;;;;18.07;40.77;101762.28;5019356;28;20033;-70
2024/03/06 02:49:35;;;;;;;6.10;3.05;;;;;;;18.08;40.77;101766.59;5005044;28;20053;-70
2024/03/06 02:52:01;;;;;;;4.97;3.03;;;;;;;18.10;40.69;101764.72;5012640;28;20468;-69
2024/03/06 02:54:27;;;;;;;4.53;2.92;;;;;;;17.96;40.57;101746.31;5000861;28;20041;-71
2024/03/06 02:56:52;;;;;;;5.63;3.00;;;;;;;18.03;40.67;101755.50;4999435;28;20403;-70
2024/03/06 02:59:18;;;;;;;4.80;2.80;;;;;;;18.10;40.33;101763.84;5009951;28;20071;-69
2024/03/06 03:01:44;;;;;;;4.72;2.92;;;;;;;18.01;40.58;101752.13;5015922;28;20056;-70
2024/03/06 03:04:10;;;;;;;4.30;2.90;;;;;;;18.05;40.46;101763.31;4998452;28;20164;-71
2024/03/06 03:06:35;;;;;;;4.97;3.20;;;;;;;18.02;40.39;101766.97;5013522;28;20475;-71
2024/03/06 03:09:01;;;;;;;5.47;3.13;;;;;;;18.05;40.42;101765.94;5009459;28;20038;-69
2024/03/06 03:11:26;;;;;;;5.60;2.78;;;;;;;18.05;40.22;101774.69;5011717;28;20032;-69
2024/03/06 03:13:52;;;;;;;5.28;3.28;;;;;;;18.06;40.38;101776.41;5011177;28;20029;-71
2024/03/06 03:16:18;;;;;;;4.82;3.03;;;;;;;17.91;40.33;101754.53;5008349;28;20045;-71
2024/03/06 03:18:44;;;;;;;4.88;2.83;;;;;;;17.91;40.30;101759.81;5018762;28;20038;-70
2024/03/06 03:21:10;;;;;;;5.68;2.90;;;;;;;18.04;40.16;101782.72;5010225;28;20872;-71
2024/03/06 03:23:36;;;;;;;4.47;2.55;;;;;;;18.02;40.26;101777.53;5004192;28;20045;-69
2024/03/06 03:26:03;;;;;;;5.20;3.10;;;;;;;18.03;40.33;101773.97;5008482;28;20446;-69
2024/03/06 03:28:29;;;;;;;4.15;2.65;;;;;;;18.00;40.12;101768.88;5015863;28;20033;-69
2024/03/06 03:30:54;;;;;;;4.75;2.85;;;;;;;17.82;40.15;101743.72;5015875;28;20499;-70
2024/03/06 03:33:19;;;;;;;4.75;3.00;;;;;;;17.86;40.04;101753.94;5010572;28;20121;-72
2024/03/06 03:35:45;;;;;;;4.70;2.90;;;;;;;17.96;39.93;101770.06;5008151;28;20026;-70
2024/03/06 03:38:10;;;;;;;4.80;2.88;;;;;;;18.00;40.18;101779.44;5009782;28;20446;-71
2024/03/06 03:40:35;;;;;;;4.47;3.08;;;;;;;17.92;40.06;101768.56;5011027;28;20042;-70
2024/03/06 03:43:05;;;;;;;4.70;2.80;;;;;;;17.93;40.07;101776.38;5019435;28;20033;-71
2024/03/06 03:45:31;;;;;;;5.25;2.75;;;;;;;17.89;39.84;101772.22;5019782;28;20103;-70
2024/03/06 03:47:56;;;;;;;4.68;2.78;;;;;;;17.94;40.02;101777.19;5019626;28;20499;-69
2024/03/06 03:50:22;;;;;;;4.57;2.67;;;;;;;17.95;39.88;101787.66;5001835;28;20551;-69
2024/03/06 03:52:47;;;;;;;5.25;2.63;;;;;;;17.87;39.88;101765.34;5002235;28;20036;-69
2024/03/06 03:55:12;;;;;;;5.00;2.90;;;;;;;17.93;39.95;101779.00;5015780;28;20475;-70
2024/03/06 03:57:37;;;;;;;4.40;2.58;;;;;;;17.83;39.64;101772.63;5021733;28;20043;-70
2024/03/06 04:00:10;;;;;;;4.15;2.55;;;;;;;17.79;39.92;101770.28;5019215;28;20034;-70
2024/03/06 04:02:36;;;;;;;5.32;3.10;;;;;;;17.91;39.82;101795.88;5003566;28;20038;-70
2024/03/06 04:05:01;;;;;;;4.95;2.78;;;;;;;17.85;39.91;101781.28;5004200;28;20042;-71
2024/03/06 04:07:26;;;;;;;5.20;2.90;;;;;;;17.80;39.56;101774.59;5020436;28;20535;-70
2024/03/06 04:09:51;;;;;;;4.53;2.80;;;;;;;17.91;39.92;101791.47;5013792;28;20498;-71
2024/03/06 04:12:17;;;;;;;5.00;2.95;;;;;;;17.91;39.72;101795.88;5010960;28;20088;-69
2024/03/06 04:14:42;;;;;;;4.95;3.25;;;;;;;17.91;39.81;101795.88;5013798;28;20094;-70
2024/03/06 04:17:07;;;;;;;5.32;3.25;;;;;;;17.88;39.80;101798.69;5009730;28;20044;-69
2024/03/06 04:19:33;;;;;;;5.88;3.40;;;;;;;17.85;39.60;101783.03;5018696;28;20033;-70
2024/03/06 04:21:59;;;;;;;4.40;2.95;;;;;;;17.87;39.87;101794.34;5013530;28;20431;-70
2024/03/06 04:24:24;;;;;;;5.05;3.08;;;;;;;17.76;39.73;101771.31;5006510;28;20052;-70
2024/03/06 04:26:49;;;;;;;4.60;3.10;;;;;;;17.81;39.77;101787.69;5011698;28;20030;-71
2024/03/06 04:29:15;;;;;;;4.85;3.28;;;;;;;17.87;39.85;101797.00;5006411;28;21292;-71
2024/03/06 04:31:41;;;;;;;7.43;2.90;;;;;;;17.83;39.69;101799.00;5010139;28;20626;-69
2024/03/06 04:34:06;;;;;;;4.85;3.00;;;;;;;17.70;39.78;101776.97;5004396;28;20057;-68
2024/03/06 04:36:31;;;;;;;5.55;3.20;;;;;;;17.83;39.80;101803.41;5009681;28;20040;-69
2024/03/06 04:38:57;;;;;;;4.45;2.72;;;;;;;17.74;39.52;101799.59;5016714;28;20038;-72
2024/03/06 04:41:23;;;;;;;5.45;3.40;;;;;;;17.71;39.52;101803.25;5008243;28;20041;-69
2024/03/06 04:43:50;;;;;;;4.60;2.88;;;;;;;17.71;39.62;101805.06;5011149;28;20051;-70
2024/03/06 04:46:15;;;;;;;6.13;3.08;;;;;;;17.71;39.53;101808.53;5011073;28;20514;-69
2024/03/06 04:48:41;;;;;;;4.53;2.70;;;;;;;17.81;39.53;101829.03;5007683;28;20050;-70
2024/03/06 04:51:06;;;;;;;4.50;2.95;;;;;;;17.81;39.68;101831.66;5010327;28;20038;-71
2024/03/06 04:53:31;;;;;;;4.85;2.85;;;;;;;17.62;39.66;101808.28;5005367;28;20038;-70
2024/03/06 04:55:57;;;;;;;5.07;3.25;;;;;;;17.80;39.43;101837.88;5003812;28;20395;-71
2024/03/06 04:58:22;;;;;;;5.25;3.25;;;;;;;17.70;39.50;101827.91;5012827;28;20045;-70
2024/03/06 05:00:48;;;;;;;4.95;3.28;;;;;;;17.75;39.48;101840.81;5005612;28;20038;-70
2024/03/06 05:03:13;;;;;;;5.15;3.20;;;;;;;17.74;39.41;101842.59;5004980;28;20136;-69
2024/03/06 05:05:39;;;;;;;5.32;3.30;;;;;;;17.77;39.29;101852.13;5020206;28;20036;-70
2024/03/06 05:08:06;;;;;;;5.50;3.05;;;;;;;17.75;39.31;101852.22;5007549;28;20148;-69
2024/03/06 05:10:32;;;;;;;5.93;3.00;;;;;;;17.71;39.34;101848.06;5008849;28;20022;-71
2024/03/06 05:12:57;;;;;;;4.90;3.22;;;;;;;17.64;39.42;101838.88;5008211;28;20055;-70
2024/03/06 05:15:22;;;;;;;4.55;2.85;;;;;;;17.66;39.19;101844.06;5011720;28;20036;-70
2024/03/06 05:17:48;;;;;;;5.47;2.85;;;;;;;17.74;39.43;101866.34;5005375;28;20083;-70
2024/03/06 05:20:14;;;;;;;5.27;3.20;;;;;;;17.75;39.06;101870.69;5010859;28;20334;-70
2024/03/06 05:22:39;;;;;;;4.75;3.28;;;;;;;17.65;39.42;101856.38;5007558;28;20299;-69
2024/03/06 05:25:05;;;;;;;4.57;2.72;;;;;;;17.64;39.22;101856.47;5005089;28;20045;-71
2024/03/06 05:27:31;;;;;;;4.63;2.85;;;;;;;17.74;39.51;101879.50;5006625;28;20056;-69
2024/03/06 05:29:57;;;;;;;4.57;2.70;;;;;;;17.61;39.39;101854.00;5012671;28;20040;-69
2024/03/06 05:32:22;;;;;;;4.97;2.88;;;;;;;17.67;39.40;101872.91;5011936;28;20825;-70
2024/03/06 05:34:47;;;;;;;5.32;3.20;;;;;;;17.62;39.23;101858.34;5001653;28;20132;-69
2024/03/06 05:37:13;;;;;;;4.70;3.08;;;;;;;17.70;39.26;101885.91;5020282;28;20033;-70
2024/03/06 05:39:38;;;;;;;5.22;2.88;;;;;;;17.66;39.14;101880.97;5019478;28;20038;-69
2024/03/06 05:42:04;;;;;;;5.35;3.10;;;;;;;17.63;39.11;101881.16;5014124;28;20399;-70
2024/03/06 05:44:33;;;;;;;4.35;2.80;;;;;;;17.67;38.93;101893.19;5019524;28;20033;-71
2024/03/06 05:47:00;;;;;;;4.30;2.88;;;;;;;17.62;39.21;101882.06;5004534;28;20574;-69
2024/03/06 05:49:26;;;;;;;5.18;3.50;;;;;;;17.69;38.94;101905.31;5015272;28;20050;-70
2024/03/06 05:51:52;;;;;;;5.50;3.30;;;;;;;17.57;38.95;101893.75;5003141;28;20038;-72
2024/03/06 05:54:19;;;;;;;4.72;2.70;;;;;;;17.62;39.15;101900.53;5013788;28;20045;-70
2024/03/06 05:56:44;;;;;;;3.88;2.42;;;;;;;17.49;39.49;101890.75;5011964;28;20117;-70
2024/03/06 05:59:09;;;;;;;4.15;2.40;;;;;;;17.65;39.43;101910.88;5003272;28;20112;-70
2024/03/06 06:01:35;;;;;;;4.25;2.60;;;;;;;17.62;39.77;101917.19;5012147;28;20476;-70
2024/03/06 06:04:01;;;;;;;4.85;2.70;;;;;;;17.60;39.75;101908.53;5001343;28;20045;-69
2024/03/06 06:06:26;;;;;;;4.70;2.55;;;;;;;17.66;40.09;101912.59;5001170;28;20065;-71
2024/03/06 06:08:52;;;;;;;4.22;2.40;;;;;;;17.77;40.19;101936.50;5012391;28;20179;-69
2024/03/06 06:11:17;;;;;;;4.10;2.30;;;;;;;17.72;40.26;101918.31;5013581;28;20084;-69
2024/03/06 06:13:43;;;;;;;4.25;2.13;;;;;;;17.83;40.24;101938.75;5018102;28;20029;-70
2024/03/06 06:16:08;;;;;;;4.00;2.08;;;;;;;17.89;40.32;101934.91;5001572;28;20042;-69
2024/03/06 06:18:33;;;;;;;4.13;1.75;;;;;;;17.82;40.23;101920.38;5007882;28;20067;-70
2024/03/06 06:20:59;;;;;;;3.65;2.00;;;;;;;17.95;40.08;101942.41;5014115;28;20430;-71
2024/03/06 06:23:25;;;;;;;3.95;2.17;;;;;;;17.90;40.25;101932.16;5015105;28;20045;-71
2024/03/06 06:25:51;;;;;;;3.78;2.00;;;;;;;17.98;40.20;101944.88;5014545;28;20048;-69
2024/03/06 06:28:16;;;;;;;3.92;2.22;;;;;;;18.00;40.32;101939.50;5008053;28;20829;-69
2024/03/06 06:30:41;;;;;;;3.40;2.05;;;;;;;18.01;40.17;101942.03;5004900;28;20153;-70
2024/03/06 06:33:08;;;;;;;4.00;2.20;;;;;;;18.07;40.09;101949.56;5010285;28;20033;-71
2024/03/06 06:35:33;;;;;;;4.03;1.90;;;;;;;17.93;40.12;101926.69;5023461;28;20439;-69
2024/03/06 06:37:59;;;;;;;4.70;2.00;;;;;;;18.07;39.77;101960.13;5007759;28;20068;-69
2024/03/06 06:40:25;;;;;;;4.35;2.17;;;;;;;18.11;39.98;101958.13;5000044;28;20046;-71
2024/03/06 06:42:50;;;;;;;4.47;2.17;;;;;;;18.11;40.10;101960.75;5003369;28;20506;-70
2024/03/06 06:45:17;;;;;;;3.50;2.08;;;;;;;18.08;39.96;101961.78;5009061;28;20403;-71
2024/03/06 06:47:42;;;;;;;3.92;2.17;;;;;;;18.06;39.77;101953.13;5007291;28;20054;-71
2024/03/06 06:50:08;;;;;;;3.70;1.83;;;;;;;17.98;39.79;101939.59;5005485;28;20080;-70
2024/03/06 06:52:37;;;;;;;4.45;2.10;;;;;;;18.04;39.93;101954.16;5010259;28;20037;-69
2024/03/06 06:55:03;;;;;;;4.32;2.20;;;;;;;18.19;39.66;101974.31;5011639;28;20035;-69
2024/03/06 06:57:29;;;;;;;3.78;1.85;;;;;;;18.16;39.76;101971.88;5012627;28;20224;-71
2024/03/06 06:59:54;;;;;;;4.05;1.92;;;;;;;18.21;39.82;101979.50;5009452;28;20395;-69
2024/03/06 07:02:19;;;;;;;3.67;1.90;;;;;;;18.13;39.74;101977.34;5007282;28;20490;-71
2024/03/06 07:04:45;;;;;;;3.95;2.10;;;;;;;18.13;39.86;101970.28;5008224;28;20175;-69
2024/03/06 07:07:10;;;;;;;4.03;1.73;;;;;;;18.23;39.81;101991.66;5009867;28;20760;-71
2024/03/06 07:09:35;;;;;;;3.60;1.90;;;;;;;18.22;40.06;101989.94;5009406;28;20075;-69
2024/03/06 07:12:01;;;;;;;3.38;2.03;;;;;;;18.17;40.12;101993.84;5011284;28;20136;-70
2024/03/06 07:14:26;;;;;;;3.88;2.05;;;;;;;18.23;40.05;101999.56;5008293;28;20057;-69
2024/03/06 07:16:51;;;;;;;5.10;2.17;;;;;;;18.20;40.12;102006.81;5009549;28;20145;-69
2024/03/06 07:19:17;;;;;;;3.80;2.00;;;;;;;18.21;40.38;101997.97;5008366;28;20029;-69
2024/03/06 07:21:42;;;;;;;3.78;2.00;;;;;;;18.17;40.41;101991.19;5010379;28;20065;-70
2024/03/06 07:24:08;;;;;;;4.63;2.05;;;;;;;18.13;40.33;101991.41;5007297;28;20091;-69
2024/03/06 07:26:33;;;;;;;4.20;1.92;;;;;;;18.16;40.64;101995.59;5006326;28;20041;-69
2024/03/06 07:28:58;;;;;;;4.50;1.90;;;;;;;18.27;40.55;102019.53;5009814;28;20450;-70
2024/03/06 07:31:24;;;;;;;4.10;1.98;;;;;;;18.17;40.83;102005.22;5011504;28;20045;-69
2024/03/06 07:33:50;;;;;;;4.53;2.28;;;;;;;18.16;40.85;102002.69;5006089;28;20052;-72
2024/03/06 07:36:16;;;;;;;4.55;2.08;;;;;;;18.29;40.98;102027.34;5004912;28;20443;-69
2024/03/06 07:38:42;;;;;;;4.68;2.08;;;;;;;18.21;41.00;102022.53;5006699;28;20034;-72
2024/03/06 07:41:07;;;;;;;3.78;2.00;;;;;;;18.22;40.76;102018.13;5001788;28;20029;-71
2024/03/06 07:43:32;;;;;;;4.10;2.00;;;;;;;18.27;41.23;102034.53;5010978;28;20044;-72
2024/03/06 07:45:58;;;;;;;6.70;2.20;;;;;;;18.08;41.24;102003.16;5008801;28;20029;-71
2024/03/06 07:48:24;;;;;;;4.82;2.03;;;;;;;18.24;41.40;102026.78;5005773;28;20915;-71
2024/03/06 07:50:49;;;;;;;4.43;2.00;;;;;;;18.28;41.43;102039.69;5007091;28;20028;-70
2024/03/06 07:53:15;;;;;;;4.10;2.00;;;;;;;18.16;41.44;102019.34;5010607;28;20487;-72
2024/03/06 07:55:41;;;;;;;4.95;2.10;;;;;;;18.25;41.63;102029.34;5007091;28;20033;-72
2024/03/06 07:58:08;;;;;;;4.63;1.98;;;;;;;18.16;41.63;102024.63;5012698;28;20041;-70
2024/03/06 08:00:33;;;;;;;4.82;2.00;;;;;;;18.19;41.73;102028.88;5007732;28;20487;-70
2024/03/06 08:03:00;;;;;;;3.80;1.83;;;;;;;18.23;41.78;102044.44;5003036;28;20034;-72
2024/03/06 08:05:26;;;;;;;4.43;2.25;;;;;;;18.26;41.72;102046.00;5011718;28;20044;-72
2024/03/06 08:07:51;;;;;;;3.92;2.03;;;;;;;18.19;41.95;102032.34;5012061;28;20029;-70
2024/03/06 08:10:18;;;;;;;4.15;2.20;;;;;;;18.31;41.95;102062.41;5002163;28;20073;-71
2024/03/06 08:12:45;;;;;;;4.88;2.00;;;;;;;18.21;41.90;102048.94;5018040;28;20132;-70
2024/03/06 08:15:12;;;;;;;4.70;2.10;;;;;;;18.19;42.18;102044.72;5013792;28;20033;-70
2024/03/06 08:17:42;;;;;;;4.50;2.30;;;;;;;18.21;42.29;102053.38;5020845;28;20033;-71
2024/03/06 08:20:09;;;;;;;4.05;1.88;;;;;;;18.24;42.75;102053.19;5013229;28;20495;-71
2024/03/06 08:22:38;;;;;;;4.38;2.30;;;;;;;18.28;42.49;102062.63;5013137;28;20034;-72
2024/03/06 08:25:06;;;;;;;5.03;2.50;;;;;;;18.28;42.89;102068.72;5005381;28;20491;-71
2024/03/06 08:27:32;;;;;;;5.38;2.20;;;;;;;18.21;43.10;102061.28;5012322;28;20069;-71
2024/03/06 08:29:57;;;;;;;4.47;1.80;;;;;;;18.35;43.14;102079.75;5009368;28;20084;-70
2024/03/06 08:32:22;;;;;;;4.07;2.15;;;;;;;18.29;43.36;102069.56;5008528;28;20471;-69
2024/03/06 08:34:48;;;;;;;4.72;2.13;;;;;;;18.28;43.90;102071.38;5014876;28;20042;-71
2024/03/06 08:37:13;;;;;;;4.00;2.03;;;;;;;18.28;43.66;102070.53;5001887;28;20390;-69
2024/03/06 08:39:39;;;;;;;4.10;2.00;;;;;;;18.39;44.12;102086.53;5004208;28;20041;-71
2024/03/06 08:42:04;;;;;;;3.92;1.90;;;;;;;18.34;43.75;102078.06;5007986;28;20044;-72
2024/03/06 08:44:30;;;;;;;5.57;2.00;;;;;;;18.29;44.04;102069.56;5019618;28;20070;-72
2024/03/06 08:46:55;;;;;;;5.22;2.10;;;;;;;18.22;44.24;102063.00;5016619;28;20030;-70
2024/03/06 08:49:20;;;;;;;3.80;2.00;;;;;;;18.41;44.00;102094.34;5004617;28;20050;-70
2024/03/06 08:51:46;;;;;;;5.00;2.23;;;;;;;18.41;44.26;102097.00;5016510;28;20116;-72
2024/03/06 08:54:11;;;;;;;5.13;1.85;;;;;;;18.40;44.46;102101.41;5012488;28;20768;-70
2024/03/06 08:56:36;;;;;;;4.78;1.80;;;;;;;18.36;44.35;102096.41;5011271;28;20029;-70
2024/03/06 08:59:02;;;;;;;3.75;1.70;;;;;;;18.29;44.44;102086.25;5019059;28;20570;-71
2024/03/06 09:01:27;;;;;;;4.18;1.85;;;;;;;18.44;44.47;102110.00;5018578;28;20124;-71
2024/03/06 09:03:53;;;;;;;4.20;1.75;;;;;;;18.32;44.31;102093.13;5004719;28;20045;-70
2024/03/06 09:06:18;;;;;;;4.78;1.80;;;;;;;18.46;44.39;102119.50;5014383;28;20041;-67
2024/03/06 09:08:43;;;;;;;3.90;1.80;;;;;;;18.36;44.71;102097.28;5006479;28;20026;-68
2024/03/06 09:11:09;;;;;;;4.27;1.77;;;;;;;18.44;44.46;102121.41;5001231;28;20251;-68
2024/03/06 09:13:34;;;;;;;4.63;2.03;;;;;;;18.43;44.54;102119.69;5006313;28;20286;-69
2024/03/06 09:15:59;;;;;;;3.58;1.60;;;;;;;18.37;44.28;102109.50;5008992;28;20037;-67
2024/03/06 09:18:25;;;;;;;4.50;1.70;;;;;;;18.46;44.61;102124.78;5015404;28;20403;-69
2024/03/06 09:20:50;;;;;;;3.88;1.80;;;;;;;18.46;44.03;102127.44;5009712;28;20038;-68
2024/03/06 09:23:15;;;;;;;4.35;1.77;;;;;;;18.43;44.26;102132.88;5014497;28;20038;-69
2024/03/06 09:25:41;;;;;;;3.75;1.85;;;;;;;18.43;44.11;102130.25;5011536;28;20061;-70
2024/03/06 09:28:08;;;;;;;4.82;1.90;;;;;;;18.42;44.01;102133.84;5013232;28;20073;-68
2024/03/06 09:30:34;;;;;;;4.15;1.80;;;;;;;18.33;44.02;102109.84;5009054;28;21143;-69
2024/03/06 09:32:59;;;;;;;5.03;2.17;;;;;;;18.46;44.04;102130.06;5008762;28;20025;-70
2024/03/06 09:35:24;;;;;;;3.60;1.70;;;;;;;18.40;44.25;102132.25;5007021;28;20574;-70
2024/03/06 09:37:50;;;;;;;6.35;1.90;;;;;;;18.41;44.04;102134.78;4998965;28;20045;-77
2024/03/06 09:40:22;;;;;;;3.90;1.70;;;;;;;18.52;44.03;102146.47;5001897;28;20045;-74
2024/03/06 09:42:49;;;;;;;7.72;2.17;;;;;;;18.52;44.06;102146.47;5005314;28;20547;-74
2024/03/06 09:45:15;;;;;;;4.25;1.88;;;;;;;18.39;44.06;102128.75;5006930;28;20544;-72
2024/03/06 09:47:42;;;;;;;6.18;1.83;;;;;;;18.42;44.10;102136.50;5006107;28;20123;-77
2024/03/06 09:50:09;;;;;;;4.15;1.73;;;;;;;18.41;44.03;102132.16;5003523;28;20473;-76
2024/03/06 09:52:36;;;;;;;4.25;1.90;;;;;;;18.50;44.09;102151.88;5012361;28;20037;-74
2024/03/06 09:55:02;;;;;;;3.47;1.80;;;;;;;18.46;44.21;102145.06;4999840;28;20045;-78
2024/03/06 09:57:27;;;;;;;3.42;1.58;;;;;;;18.55;44.22;102157.69;5001471;28;20116;-75
2024/03/06 09:59:53;;;;;;;3.72;1.63;;;;;;;18.44;44.09;102141.69;5006131;28;20033;-74
2024/03/06 10:02:37;;;;;;;5.05;1.77;;;;;;;18.56;44.05;102164.66;5003479;28;20416;-73
2024/03/06 10:05:03;;;;;;;3.35;1.55;;;;;;;18.51;43.92;102158.81;5005348;28;20129;-75
2024/03/06 10:07:28;;;;;;;3.25;1.40;;;;;;;18.58;44.12;102170.72;5006928;28;20565;-73
2024/03/06 10:09:53;;;;;;;5.22;1.83;;;;;;;18.49;43.54;102155.44;5008779;28;20518;-73
2024/03/06 10:12:19;;;;;;;4.25;1.48;;;;;;;18.51;43.81;102155.34;5008501;28;20037;-74
2024/03/06 10:14:54;;;;;;;4.32;1.48;;;;;;;18.51;43.78;102158.81;5006591;28;20037;-71
2024/03/06 10:17:22;;;;;;;5.78;1.88;;;;;;;18.61;44.18;102180.22;5008729;28;20040;-75
2024/03/06 10:19:51;;;;;;;3.97;1.70;;;;;;;18.60;44.32;102182.00;5005785;28;20049;-75
2024/03/06 10:22:17;;;;;;;4.22;1.50;;;;;;;18.49;44.38;102156.28;5008467;28;20036;-73
2024/03/06 10:24:42;;;;;;;4.22;1.48;;;;;;;18.53;44.42;102159.56;5012126;28;20038;-76
2024/03/06 10:27:09;;;;;;;4.05;1.60;;;;;;;18.51;44.38;102160.63;5013116;28;20033;-72
2024/03/06 10:29:35;;;;;;;3.35;1.40;;;;;;;18.55;44.53;102170.03;5006303;28;20065;-71
2024/03/06 10:32:00;;;;;;;4.95;1.55;;;;;;;18.58;44.23;102177.75;5003539;28;20030;-72
2024/03/06 10:34:27;;;;;;;3.75;1.58;;;;;;;18.63;44.47;102180.97;5011250;28;20502;-75
2024/03/06 10:36:58;;;;;;;3.67;1.40;;;;;;;18.66;44.85;102178.16;5005803;28;20518;-77
2024/03/06 10:39:24;;;;;;;7.75;1.67;;;;;;;18.64;44.67;102180.03;5007907;28;20041;-78
2024/03/06 10:41:57;;;;;;;4.40;1.70;;;;;;;18.58;44.90;102161.91;5010098;28;20037;-78
2024/03/06 10:44:27;;;;;;;5.15;1.65;;;;;;;18.58;44.99;102151.34;5009412;28;20095;-77
2024/03/06 10:47:02;;;;;;;3.75;1.38;;;;;;;18.62;44.89;102159.00;5006315;28;20022;-79
2024/03/06 10:49:29;;;;;;;4.38;1.50;;;;;;;18.55;44.87;102147.13;5008935;28;20049;-82
2024/03/06 10:52:07;;;;;;;3.33;1.50;;;;;;;18.62;45.03;102169.56;5010321;28;20547;-79
2024/03/06 10:54:41;;;;;;;3.22;1.33;;;;;;;18.64;45.27;102165.03;5012232;28;20080;-82
2024/03/06 10:57:08;;;;;;;4.43;1.25;;;;;;;18.69;45.01;102172.66;5004832;28;20026;-77
2024/03/06 10:59:34;;;;;;;3.50;1.33;;;;;;;18.68;44.87;102177.09;5009848;28;20033;-73
2024/03/06 11:02:02;;;;;;;3.40;1.30;;;;;;;18.68;44.91;102184.19;5006520;28;20041;-72
2024/03/06 11:04:34;;;;;;;3.85;1.23;;;;;;;18.60;44.81;102162.69;5009808;28;20128;-73
2024/03/06 11:07:04;;;;;;;3.75;1.52;;;;;;;18.61;44.90;102170.50;5008078;28;20045;-74
2024/03/06 11:09:40;;;;;;;4.25;1.38;;;;;;;18.64;44.89;102177.38;5009610;28;20045;-72
2024/03/06 11:12:07;;;;;;;2.65;1.42;;;;;;;18.55;44.72;102157.69;5006509;28;20034;-72
2024/03/06 11:14:35;;;;;;;2.60;1.17;;;;;;;18.49;44.92;102161.56;5010714;28;20065;-75
2024/03/06 11:17:04;;;;;;;3.58;1.20;;;;;;;18.53;44.79;102156.09;5008090;28;20034;-76
2024/03/06 11:19:30;;;;;;;4.20;1.42;;;;;;;18.68;44.99;102184.19;5010432;28;20041;-74